sensor_id;sensor_type;location;lat;lon;timestamp;pressure;altitude;pressure_sealevel;temperature;humidity
10167;BME280;62970;53.130;8.244;2023-10-09T06:18:07;101641.09;;;12.07;72.50
10167;BME280;62970;53.130;8.244;2023-10-09T11:48:22;101704.59;;;15.95;74.02
10167;BME280;62970;53.130;8.244;2023-10-09T11:50:59;101711.66;;;15.93;74.04
10167;BME280;62970;53.130;8.244;2023-10-09T11:53:45;101712.63;;;15.91;73.91
10167;BME280;62970;53.130;8.244;2023-10-09T11:56:15;101709.16;;;15.89;73.86
10167;BME280;62970;53.130;8.244;2023-10-09T11:58:47;101710.09;;;15.88;73.97
10167;BME280;62970;53.130;8.244;2023-10-09T12:01:17;101707.44;;;15.88;74.06
10167;BME280;62970;53.130;8.244;2023-10-09T12:03:51;101708.25;;;15.90;74.29
10167;BME280;62970;53.130;8.244;2023-10-09T12:06:21;101710.75;;;15.94;74.83
10167;BME280;62970;53.130;8.244;2023-10-09T12:08:58;101706.13;;;16.03;74.91
10167;BME280;62970;53.130;8.244;2023-10-09T12:11:31;101698.75;;;16.14;75.17
10167;BME280;62970;53.130;8.244;2023-10-09T12:14:00;101698.44;;;16.23;75.02
10167;BME280;62970;53.130;8.244;2023-10-09T12:16:30;101697.19;;;16.35;75.02
10167;BME280;62970;53.130;8.244;2023-10-09T12:19:02;101706.38;;;16.48;74.92
10167;BME280;62970;53.130;8.244;2023-10-09T12:21:35;101696.28;;;16.62;75.38
10167;BME280;62970;53.130;8.244;2023-10-09T12:24:09;101691.44;;;16.75;75.22
10167;BME280;62970;53.130;8.244;2023-10-09T12:26:38;101689.28;;;16.86;74.97
10167;BME280;62970;53.130;8.244;2023-10-09T12:29:08;101689.06;;;16.92;74.72
10167;BME280;62970;53.130;8.244;2023-10-09T12:31:37;101683.69;;;16.95;73.92
10167;BME280;62970;53.130;8.244;2023-10-09T12:34:14;101692.56;;;16.92;74.12
10167;BME280;62970;53.130;8.244;2023-10-09T12:36:45;101690.97;;;16.88;73.92
10167;BME280;62970;53.130;8.244;2023-10-09T12:39:15;101695.53;;;16.83;73.67
10167;BME280;62970;53.130;8.244;2023-10-09T12:41:46;101687.03;;;16.75;73.51
10167;BME280;62970;53.130;8.244;2023-10-09T12:44:19;101700.47;;;16.68;73.57
10167;BME280;62970;53.130;8.244;2023-10-09T12:46:53;101694.59;;;16.59;73.41
10167;BME280;62970;53.130;8.244;2023-10-09T12:49:25;101700.03;;;16.55;73.64
10167;BME280;62970;53.130;8.244;2023-10-09T12:51:54;101708.91;;;16.51;73.55
10167;BME280;62970;53.130;8.244;2023-10-09T12:54:25;101711.69;;;16.46;73.81
10167;BME280;62970;53.130;8.244;2023-10-09T12:56:57;101705.69;;;16.43;73.51
10167;BME280;62970;53.130;8.244;2023-10-09T12:59:27;101709.31;;;16.39;73.38
10167;BME280;62970;53.130;8.244;2023-10-09T13:01:56;101709.38;;;16.37;73.82
10167;BME280;62970;53.130;8.244;2023-10-09T13:04:30;101706.84;;;16.34;73.73
10167;BME280;62970;53.130;8.244;2023-10-09T13:07:01;101707.69;;;16.35;73.67
10167;BME280;62970;53.130;8.244;2023-10-09T13:09:33;101705.13;;;16.33;73.50
10167;BME280;62970;53.130;8.244;2023-10-09T13:12:09;101710.44;;;16.32;73.77
10167;BME280;62970;53.130;8.244;2023-10-09T13:14:44;101710.47;;;16.30;73.32
10167;BME280;62970;53.130;8.244;2023-10-09T13:17:15;101704.41;;;16.28;73.84
10167;BME280;62970;53.130;8.244;2023-10-09T13:19:49;101709.72;;;16.26;73.33
10167;BME280;62970;53.130;8.244;2023-10-09T13:22:18;101711.44;;;16.27;73.75
10167;BME280;62970;53.130;8.244;2023-10-09T13:24:49;101711.44;;;16.27;73.53
10167;BME280;62970;53.130;8.244;2023-10-09T13:27:29;101713.97;;;16.31;73.56
10167;BME280;62970;53.130;8.244;2023-10-09T13:30:00;101716.56;;;16.32;73.45
10167;BME280;62970;53.130;8.244;2023-10-09T13:32:34;101715.66;;;16.33;73.32
10167;BME280;62970;53.130;8.244;2023-10-09T13:35:08;101725.38;;;16.31;73.06
10167;BME280;62970;53.130;8.244;2023-10-09T13:37:52;101718.31;;;16.32;73.36
10167;BME280;62970;53.130;8.244;2023-10-09T13:40:23;101716.50;;;16.34;73.17
10167;BME280;62970;53.130;8.244;2023-10-09T13:42:56;101713.88;;;16.34;73.14
10167;BME280;62970;53.130;8.244;2023-10-09T13:50:36;101723.69;;;16.28;73.07
10167;BME280;62970;53.130;8.244;2023-10-09T13:53:09;101725.47;;;16.28;72.66
10167;BME280;62970;53.130;8.244;2023-10-09T13:55:41;101726.38;;;16.27;72.82
10167;BME280;62970;53.130;8.244;2023-10-09T13:58:23;101720.34;;;16.23;73.05
10167;BME280;62970;53.130;8.244;2023-10-09T14:01:04;101735.28;;;16.23;72.85
10167;BME280;62970;53.130;8.244;2023-10-09T14:03:34;101735.28;;;16.23;72.78
10167;BME280;62970;53.130;8.244;2023-10-09T14:06:07;101739.69;;;16.22;72.38
10167;BME280;62970;53.130;8.244;2023-10-09T14:08:40;101735.31;;;16.21;72.48
10167;BME280;62970;53.130;8.244;2023-10-09T14:11:11;101738.81;;;16.22;72.94
10167;BME280;62970;53.130;8.244;2023-10-09T14:13:42;101738.81;;;16.22;73.00
10167;BME280;62970;53.130;8.244;2023-10-09T14:16:14;101733.50;;;16.23;72.41
10167;BME280;62970;53.130;8.244;2023-10-09T14:19:05;101728.34;;;16.20;72.57
10167;BME280;62970;53.130;8.244;2023-10-09T14:21:42;101737.97;;;16.21;72.61
10167;BME280;62970;53.130;8.244;2023-10-09T14:24:15;101731.78;;;16.22;72.34
10167;BME280;62970;53.130;8.244;2023-10-09T14:26:45;101735.13;;;16.27;73.06
10167;BME280;62970;53.130;8.244;2023-10-09T14:29:17;101725.38;;;16.31;72.81
10167;BME280;62970;53.130;8.244;2023-10-09T14:31:49;101722.53;;;16.37;73.01
10167;BME280;62970;53.130;8.244;2023-10-09T14:34:29;101724.16;;;16.41;72.66
10167;BME280;62970;53.130;8.244;2023-10-09T14:37:10;101721.47;;;16.43;72.71
10167;BME280;62970;53.130;8.244;2023-10-09T14:39:45;101722.31;;;16.43;72.30
10167;BME280;62970;53.130;8.244;2023-10-09T14:42:22;101728.47;;;16.44;72.51
10167;BME280;62970;53.130;8.244;2023-10-09T14:44:54;101732.84;;;16.43;72.42
10167;BME280;62970;53.130;8.244;2023-10-09T14:47:23;101740.81;;;16.42;72.13
10167;BME280;62970;53.130;8.244;2023-10-09T14:49:52;101740.81;;;16.42;72.00
10167;BME280;62970;53.130;8.244;2023-10-09T14:52:36;101736.44;;;16.41;72.04
10167;BME280;62970;53.130;8.244;2023-10-09T14:55:09;101748.75;;;16.40;72.47
10167;BME280;62970;53.130;8.244;2023-10-09T14:57:39;101748.69;;;16.42;72.42
10167;BME280;62970;53.130;8.244;2023-10-09T15:00:10;101749.56;;;16.42;72.40
10167;BME280;62970;53.130;8.244;2023-10-09T15:02:43;101747.75;;;16.44;72.13
10167;BME280;62970;53.130;8.244;2023-10-09T15:05:13;101760.91;;;16.44;72.37
10167;BME280;62970;53.130;8.244;2023-10-09T15:07:45;101760.03;;;16.44;72.04
10167;BME280;62970;53.130;8.244;2023-10-09T15:10:19;101746.00;;;16.43;72.01
10167;BME280;62970;53.130;8.244;2023-10-09T15:12:50;101744.28;;;16.42;72.13
10167;BME280;62970;53.130;8.244;2023-10-09T15:15:19;101752.25;;;16.41;71.83
10167;BME280;62970;53.130;8.244;2023-10-09T15:17:51;101747.03;;;16.39;72.01
10167;BME280;62970;53.130;8.244;2023-10-09T15:20:21;101751.38;;;16.40;71.94
10167;BME280;62970;53.130;8.244;2023-10-09T15:22:53;101749.66;;;16.39;72.25
10167;BME280;62970;53.130;8.244;2023-10-09T15:25:25;101754.91;;;16.39;71.74
10167;BME280;62970;53.130;8.244;2023-10-09T15:27:54;101747.94;;;16.38;72.22
10167;BME280;62970;53.130;8.244;2023-10-09T15:30:26;101749.75;;;16.36;72.16
10167;BME280;62970;53.130;8.244;2023-10-09T15:32:55;101756.78;;;16.36;71.73
10167;BME280;62970;53.130;8.244;2023-10-09T15:35:24;101755.97;;;16.34;72.18
10167;BME280;62970;53.130;8.244;2023-10-09T15:37:58;101755.16;;;16.32;72.06
10167;BME280;62970;53.130;8.244;2023-10-09T15:40:29;101752.63;;;16.28;72.13
10167;BME280;62970;53.130;8.244;2023-10-09T15:43:01;101759.78;;;16.25;71.52
10167;BME280;62970;53.130;8.244;2023-10-09T15:45:31;101765.19;;;16.20;72.05
10167;BME280;62970;53.130;8.244;2023-10-09T15:48:04;101767.94;;;16.16;72.13
10167;BME280;62970;53.130;8.244;2023-10-09T15:50:34;101780.34;;;16.12;72.06
10167;BME280;62970;53.130;8.244;2023-10-09T15:53:05;101780.47;;;16.08;71.83
10167;BME280;62970;53.130;8.244;2023-10-09T15:55:36;101777.19;;;16.01;71.71
10167;BME280;62970;53.130;8.244;2023-10-09T15:58:05;101783.47;;;15.95;72.09
10167;BME280;62970;53.130;8.244;2023-10-09T16:00:35;101779.28;;;15.90;71.74
10167;BME280;62970;53.130;8.244;2023-10-09T16:03:05;101788.13;;;15.87;71.83
10167;BME280;62970;53.130;8.244;2023-10-09T16:05:36;101777.69;;;15.84;71.91
10167;BME280;62970;53.130;8.244;2023-10-09T16:08:09;101783.09;;;15.80;71.68
10167;BME280;62970;53.130;8.244;2023-10-09T16:10:39;101784.06;;;15.76;72.22
10167;BME280;62970;53.130;8.244;2023-10-09T16:13:08;101792.06;;;15.73;72.06
10167;BME280;62970;53.130;8.244;2023-10-09T16:15:41;101790.38;;;15.70;72.32
10167;BME280;62970;53.130;8.244;2023-10-09T16:18:12;101800.13;;;15.67;71.72
10167;BME280;62970;53.130;8.244;2023-10-09T16:20:41;101806.41;;;15.61;71.69
10167;BME280;62970;53.130;8.244;2023-10-09T16:23:14;101798.56;;;15.58;71.87
10167;BME280;62970;53.130;8.244;2023-10-09T16:25:46;101803.97;;;15.53;71.82
10167;BME280;62970;53.130;8.244;2023-10-09T16:28:15;101810.22;;;15.49;71.90
10167;BME280;62970;53.130;8.244;2023-10-09T16:30:45;101815.63;;;15.43;72.10
10167;BME280;62970;53.130;8.244;2023-10-09T16:33:14;101806.94;;;15.41;72.05
10167;BME280;62970;53.130;8.244;2023-10-09T16:35:45;101814.03;;;15.38;72.21
10167;BME280;62970;53.130;8.244;2023-10-09T16:38:18;101817.63;;;15.35;72.11
10167;BME280;62970;53.130;8.244;2023-10-09T16:40:55;101812.44;;;15.32;72.10
10167;BME280;62970;53.130;8.244;2023-10-09T16:43:27;101818.69;;;15.28;72.61
10167;BME280;62970;53.130;8.244;2023-10-09T16:45:56;101828.41;;;15.24;72.14
10167;BME280;62970;53.130;8.244;2023-10-09T16:48:27;101828.50;;;15.21;71.96
10167;BME280;62970;53.130;8.244;2023-10-09T16:50:56;101839.94;;;15.17;72.60
10167;BME280;62970;53.130;8.244;2023-10-09T16:53:29;101843.59;;;15.12;72.44
10167;BME280;62970;53.130;8.244;2023-10-09T16:56:03;101855.09;;;15.08;72.34
10167;BME280;62970;53.130;8.244;2023-10-09T16:58:36;101849.94;;;15.03;72.16
10167;BME280;62970;53.130;8.244;2023-10-09T17:01:07;101848.25;;;15.00;72.56
10167;BME280;62970;53.130;8.244;2023-10-09T17:03:37;101843.03;;;14.99;71.84
10167;BME280;62970;53.130;8.244;2023-10-09T17:06:08;101841.34;;;14.96;72.19
10167;BME280;62970;53.130;8.244;2023-10-09T17:08:47;101839.66;;;14.94;71.96
10167;BME280;62970;53.130;8.244;2023-10-09T17:11:19;101844.13;;;14.90;71.22
10167;BME280;62970;53.130;8.244;2023-10-09T17:13:50;101844.25;;;14.86;71.22
10167;BME280;62970;53.130;8.244;2023-10-09T17:16:23;101852.19;;;14.83;71.29
10167;BME280;62970;53.130;8.244;2023-10-09T17:18:55;101853.13;;;14.80;71.08
10167;BME280;62970;53.130;8.244;2023-10-09T17:21:27;101865.41;;;14.80;71.80
10167;BME280;62970;53.130;8.244;2023-10-09T17:24:05;101861.91;;;14.79;71.84
10167;BME280;62970;53.130;8.244;2023-10-09T17:26:36;101867.16;;;14.79;71.80
10167;BME280;62970;53.130;8.244;2023-10-09T17:29:07;101864.50;;;14.81;71.46
10167;BME280;62970;53.130;8.244;2023-10-09T17:31:38;101861.00;;;14.80;71.86
10167;BME280;62970;53.130;8.244;2023-10-09T17:34:09;101871.50;;;14.80;71.57
10167;BME280;62970;53.130;8.244;2023-10-09T17:36:38;101872.38;;;14.81;72.03
10167;BME280;62970;53.130;8.244;2023-10-09T17:39:10;101875.88;;;14.81;71.59
10167;BME280;62970;53.130;8.244;2023-10-09T17:41:41;101878.50;;;14.81;72.13
10167;BME280;62970;53.130;8.244;2023-10-09T17:44:12;101871.50;;;14.80;71.69
10167;BME280;62970;53.130;8.244;2023-10-09T17:46:45;101883.75;;;14.81;72.09
10167;BME280;62970;53.130;8.244;2023-10-09T17:49:14;101882.91;;;14.79;71.66
10167;BME280;62970;53.130;8.244;2023-10-09T17:51:43;101889.94;;;14.79;71.91
10167;BME280;62970;53.130;8.244;2023-10-09T17:54:20;101883.88;;;14.75;71.83
10167;BME280;62970;53.130;8.244;2023-10-09T17:56:52;101890.94;;;14.73;72.13
10167;BME280;62970;53.130;8.244;2023-10-09T17:59:22;101893.56;;;14.73;71.86
10167;BME280;62970;53.130;8.244;2023-10-09T18:01:53;101888.34;;;14.72;72.27
10167;BME280;62970;53.130;8.244;2023-10-09T18:04:23;101883.09;;;14.72;71.94
10167;BME280;62970;53.130;8.244;2023-10-09T18:06:53;101887.53;;;14.70;71.98
10167;BME280;62970;53.130;8.244;2023-10-09T18:09:25;101881.47;;;14.66;71.91
10167;BME280;62970;53.130;8.244;2023-10-09T18:11:56;101886.72;;;14.64;71.85
10167;BME280;62970;53.130;8.244;2023-10-09T18:14:28;101892.91;;;14.62;72.44
10167;BME280;62970;53.130;8.244;2023-10-09T18:17:00;101892.94;;;14.60;72.50
10167;BME280;62970;53.130;8.244;2023-10-09T18:19:32;101885.06;;;14.60;72.50
10167;BME280;62970;53.130;8.244;2023-10-09T18:22:04;101891.19;;;14.61;72.41
10167;BME280;62970;53.130;8.244;2023-10-09T18:24:41;101897.34;;;14.60;72.72
10167;BME280;62970;53.130;8.244;2023-10-09T18:27:12;101908.66;;;14.62;72.47
10167;BME280;62970;53.130;8.244;2023-10-09T18:29:43;101901.69;;;14.61;72.66
10167;BME280;62970;53.130;8.244;2023-10-09T18:32:14;101902.59;;;14.60;72.52
10167;BME280;62970;53.130;8.244;2023-10-09T18:34:44;101894.75;;;14.58;72.67
10167;BME280;62970;53.130;8.244;2023-10-09T18:37:17;101900.03;;;14.57;72.75
10167;BME280;62970;53.130;8.244;2023-10-09T18:39:50;101901.81;;;14.55;72.57
10167;BME280;62970;53.130;8.244;2023-10-09T18:42:20;101902.72;;;14.54;72.31
10167;BME280;62970;53.130;8.244;2023-10-09T18:44:49;101910.63;;;14.52;72.46
10167;BME280;62970;53.130;8.244;2023-10-09T18:47:19;101906.28;;;14.51;72.57
10167;BME280;62970;53.130;8.244;2023-10-09T18:49:51;101898.44;;;14.50;72.46
10167;BME280;62970;53.130;8.244;2023-10-09T18:52:20;101900.16;;;14.51;72.74
10167;BME280;62970;53.130;8.244;2023-10-09T18:54:54;101898.44;;;14.50;72.44
10167;BME280;62970;53.130;8.244;2023-10-09T18:57:27;101907.16;;;14.52;72.23
10167;BME280;62970;53.130;8.244;2023-10-09T18:59:56;101909.78;;;14.52;72.50
10167;BME280;62970;53.130;8.244;2023-10-09T19:02:27;101914.13;;;14.53;72.36
10167;BME280;62970;53.130;8.244;2023-10-09T19:04:57;101914.94;;;14.55;72.79
10167;BME280;62970;53.130;8.244;2023-10-09T19:07:26;101914.94;;;14.55;72.77
10167;BME280;62970;53.130;8.244;2023-10-09T19:09:58;101908.88;;;14.53;72.48
10167;BME280;62970;53.130;8.244;2023-10-09T19:12:27;101910.63;;;14.52;72.42
10167;BME280;62970;53.130;8.244;2023-10-09T19:14:57;101917.59;;;14.53;72.72
10167;BME280;62970;53.130;8.244;2023-10-09T19:17:26;101920.22;;;14.53;72.72
10167;BME280;62970;53.130;8.244;2023-10-09T19:19:56;101921.09;;;14.54;72.15
10167;BME280;62970;53.130;8.244;2023-10-09T19:22:26;101917.63;;;14.52;72.46
10167;BME280;62970;53.130;8.244;2023-10-09T19:24:58;101915.00;;;14.52;72.20
10167;BME280;62970;53.130;8.244;2023-10-09T19:27:28;101920.25;;;14.52;72.27
10167;BME280;62970;53.130;8.244;2023-10-09T19:29:58;101926.38;;;14.52;72.70
10167;BME280;62970;53.130;8.244;2023-10-09T19:32:32;101926.38;;;14.52;72.60
10167;BME280;62970;53.130;8.244;2023-10-09T19:35:05;101927.28;;;14.51;72.46
10167;BME280;62970;53.130;8.244;2023-10-09T19:37:35;101932.56;;;14.50;72.68
10167;BME280;62970;53.130;8.244;2023-10-09T19:40:09;101935.22;;;14.48;72.59
10167;BME280;62970;53.130;8.244;2023-10-09T19:42:38;101934.34;;;14.48;72.48
10167;BME280;62970;53.130;8.244;2023-10-09T19:45:10;101935.22;;;14.48;72.61
10167;BME280;62970;53.130;8.244;2023-10-09T19:47:47;101937.88;;;14.47;72.33
10167;BME280;62970;53.130;8.244;2023-10-09T19:50:17;101939.59;;;14.48;72.50
10167;BME280;62970;53.130;8.244;2023-10-09T19:52:46;101941.31;;;14.49;72.69
10167;BME280;62970;53.130;8.244;2023-10-09T19:55:19;101935.22;;;14.48;73.07
10167;BME280;62970;53.130;8.244;2023-10-09T19:57:49;101940.50;;;14.47;72.72
10167;BME280;62970;53.130;8.244;2023-10-09T20:00:20;101944.06;;;14.43;72.34
10167;BME280;62970;53.130;8.244;2023-10-09T20:02:51;101941.56;;;14.38;72.83
10167;BME280;62970;53.130;8.244;2023-10-09T20:05:20;101948.66;;;14.33;72.35
10167;BME280;62970;53.130;8.244;2023-10-09T20:07:51;101939.13;;;14.29;72.50
10167;BME280;62970;53.130;8.244;2023-10-09T20:10:23;101939.22;;;14.24;72.91
10167;BME280;62970;53.130;8.244;2023-10-09T20:12:52;101940.16;;;14.20;73.01
10167;BME280;62970;53.130;8.244;2023-10-09T20:15:23;101942.03;;;14.15;72.95
10167;BME280;62970;53.130;8.244;2023-10-09T20:17:52;101948.22;;;14.11;72.97
10167;BME280;62970;53.130;8.244;2023-10-09T20:20:21;101952.66;;;14.08;73.00
10167;BME280;62970;53.130;8.244;2023-10-09T20:22:51;101962.34;;;14.04;73.30
10167;BME280;62970;53.130;8.244;2023-10-09T20:25:23;101952.84;;;13.98;73.13
10167;BME280;62970;53.130;8.244;2023-10-09T20:27:53;101945.94;;;13.94;73.27
10167;BME280;62970;53.130;8.244;2023-10-09T20:30:23;101945.97;;;13.93;73.23
10167;BME280;62970;53.130;8.244;2023-10-09T20:32:52;101936.41;;;13.90;73.58
10167;BME280;62970;53.130;8.244;2023-10-09T20:35:22;101948.66;;;13.90;73.29
10167;BME280;62970;53.130;8.244;2023-10-09T20:37:53;101940.84;;;13.87;73.20
10167;BME280;62970;53.130;8.244;2023-10-09T20:40:30;101947.00;;;13.84;73.60
10167;BME280;62970;53.130;8.244;2023-10-09T20:42:59;101958.34;;;13.85;73.73
10167;BME280;62970;53.130;8.244;2023-10-09T20:45:28;101965.31;;;13.86;73.56
10167;BME280;62970;53.130;8.244;2023-10-09T20:47:59;101962.66;;;13.87;73.52
10167;BME280;62970;53.130;8.244;2023-10-09T20:50:31;101959.13;;;13.90;74.00
10167;BME280;62970;53.130;8.244;2023-10-09T20:53:04;101966.09;;;13.91;73.53
10167;BME280;62970;53.130;8.244;2023-10-09T20:55:37;101959.06;;;13.93;73.96
10167;BME280;62970;53.130;8.244;2023-10-09T20:58:07;101964.25;;;13.96;73.84
10167;BME280;62970;53.130;8.244;2023-10-09T21:00:37;101971.25;;;13.95;73.71
10167;BME280;62970;53.130;8.244;2023-10-09T21:03:06;101959.94;;;13.93;73.52
10167;BME280;62970;53.130;8.244;2023-10-09T21:05:36;101965.25;;;13.90;73.14
10167;BME280;62970;53.130;8.244;2023-10-09T21:08:05;101955.72;;;13.85;73.00
10167;BME280;62970;53.130;8.244;2023-10-09T21:10:38;101957.56;;;13.80;73.48
10167;BME280;62970;53.130;8.244;2023-10-09T21:13:09;101962.91;;;13.75;73.25
10167;BME280;62970;53.130;8.244;2023-10-09T21:15:41;101956.00;;;13.69;73.02
10167;BME280;62970;53.130;8.244;2023-10-09T21:18:11;101958.72;;;13.65;73.26
10167;BME280;62970;53.130;8.244;2023-10-09T21:20:43;101956.13;;;13.62;73.09
10167;BME280;62970;53.130;8.244;2023-10-09T21:23:12;101963.16;;;13.58;73.69
10167;BME280;62970;53.130;8.244;2023-10-09T21:25:44;101957.97;;;13.55;73.23
10167;BME280;62970;53.130;8.244;2023-10-09T21:28:13;101965.00;;;13.53;73.28
10167;BME280;62970;53.130;8.244;2023-10-09T21:30:43;101964.19;;;13.50;73.65
10167;BME280;62970;53.130;8.244;2023-10-09T21:33:12;101968.59;;;13.48;73.54
10167;BME280;62970;53.130;8.244;2023-10-09T21:35:41;101963.41;;;13.45;73.62
10167;BME280;62970;53.130;8.244;2023-10-09T21:38:10;101959.06;;;13.44;73.70
10167;BME280;62970;53.130;8.244;2023-10-09T21:40:40;101952.09;;;13.41;74.13
10167;BME280;62970;53.130;8.244;2023-10-09T21:43:11;101950.38;;;13.40;73.76
10167;BME280;62970;53.130;8.244;2023-10-09T21:45:41;101946.91;;;13.39;74.17
10167;BME280;62970;53.130;8.244;2023-10-09T21:48:12;101941.69;;;13.38;74.24
10167;BME280;62970;53.130;8.244;2023-10-09T21:50:42;101958.28;;;13.37;74.01
10167;BME280;62970;53.130;8.244;2023-10-09T21:53:11;101960.03;;;13.36;74.30
10167;BME280;62970;53.130;8.244;2023-10-09T21:55:43;101965.31;;;13.35;73.86
10167;BME280;62970;53.130;8.244;2023-10-09T21:58:15;101958.34;;;13.34;74.07
10167;BME280;62970;53.130;8.244;2023-10-09T22:00:44;101953.09;;;13.34;74.21
10167;BME280;62970;53.130;8.244;2023-10-09T22:03:13;101960.13;;;13.32;74.06
10167;BME280;62970;53.130;8.244;2023-10-09T22:05:44;101955.75;;;13.32;73.70
10167;BME280;62970;53.130;8.244;2023-10-09T22:08:14;101958.38;;;13.31;74.05
10167;BME280;62970;53.130;8.244;2023-10-09T22:10:44;101966.25;;;13.31;73.92
10167;BME280;62970;53.130;8.244;2023-10-09T22:13:17;101965.41;;;13.29;74.01
10167;BME280;62970;53.130;8.244;2023-10-09T22:16:04;101971.53;;;13.28;74.29
10167;BME280;62970;53.130;8.244;2023-10-09T22:18:34;101975.03;;;13.28;74.38
10167;BME280;62970;53.130;8.244;2023-10-09T22:21:06;101970.66;;;13.27;74.87
10167;BME280;62970;53.130;8.244;2023-10-09T22:23:37;101967.19;;;13.27;74.59
10167;BME280;62970;53.130;8.244;2023-10-09T22:26:12;101966.31;;;13.26;74.63
10167;BME280;62970;53.130;8.244;2023-10-09T22:28:48;101970.69;;;13.26;74.82
10167;BME280;62970;53.130;8.244;2023-10-09T22:31:17;101967.19;;;13.27;74.88
10167;BME280;62970;53.130;8.244;2023-10-09T22:33:48;101969.81;;;13.27;74.78
10167;BME280;62970;53.130;8.244;2023-10-09T22:36:22;101966.31;;;13.26;74.86
10167;BME280;62970;53.130;8.244;2023-10-09T22:38:53;101956.72;;;13.25;75.08
10167;BME280;62970;53.130;8.244;2023-10-09T22:41:25;101964.59;;;13.25;75.05
10167;BME280;62970;53.130;8.244;2023-10-09T22:43:58;101963.72;;;13.25;74.53
10167;BME280;62970;53.130;8.244;2023-10-09T22:46:36;101964.59;;;13.25;74.80
10167;BME280;62970;53.130;8.244;2023-10-09T22:49:05;101970.72;;;13.24;75.10
10167;BME280;62970;53.130;8.244;2023-10-09T22:51:39;101970.75;;;13.23;74.86
10167;BME280;62970;53.130;8.244;2023-10-09T22:54:17;101970.78;;;13.21;74.92
10167;BME280;62970;53.130;8.244;2023-10-09T22:56:52;101970.78;;;13.20;74.79
10167;BME280;62970;53.130;8.244;2023-10-09T22:59:24;101969.06;;;13.19;75.07
10167;BME280;62970;53.130;8.244;2023-10-09T23:01:54;101968.19;;;13.18;75.20
10167;BME280;62970;53.130;8.244;2023-10-09T23:04:25;101967.34;;;13.18;74.65
10167;BME280;62970;53.130;8.244;2023-10-09T23:07:07;101969.09;;;13.17;74.95
10167;BME280;62970;53.130;8.244;2023-10-09T23:09:44;101959.50;;;13.16;74.88
10167;BME280;62970;53.130;8.244;2023-10-09T23:12:22;101963.84;;;13.17;75.23
10167;BME280;62970;53.130;8.244;2023-10-09T23:15:01;101962.13;;;13.16;75.34
10167;BME280;62970;53.130;8.244;2023-10-09T23:17:35;101969.09;;;13.17;75.44
10167;BME280;62970;53.130;8.244;2023-10-09T23:20:14;101966.47;;;13.17;75.08
10167;BME280;62970;53.130;8.244;2023-10-09T23:22:48;101964.72;;;13.18;75.54
10167;BME280;62970;53.130;8.244;2023-10-09T23:25:15;101969.06;;;13.19;75.37
10167;BME280;62970;53.130;8.244;2023-10-09T23:27:53;101978.66;;;13.20;75.51
10167;BME280;62970;53.130;8.244;2023-10-09T23:30:44;101969.94;;;13.18;74.97
10167;BME280;62970;53.130;8.244;2023-10-09T23:33:18;101972.59;;;13.16;75.43
10167;BME280;62970;53.130;8.244;2023-10-09T23:35:49;101973.47;;;13.15;75.45
10167;BME280;62970;53.130;8.244;2023-10-09T23:38:30;101980.53;;;13.12;75.41
10167;BME280;62970;53.130;8.244;2023-10-09T23:41:00;101973.56;;;13.09;75.35
10167;BME280;62970;53.130;8.244;2023-10-09T23:43:36;101976.25;;;13.04;74.96
10167;BME280;62970;53.130;8.244;2023-10-09T23:46:14;101981.56;;;13.00;75.25
10167;BME280;62970;53.130;8.244;2023-10-09T23:48:49;101984.25;;;12.95;75.07
10167;BME280;62970;53.130;8.244;2023-10-09T23:51:20;101986.91;;;12.92;75.34
10167;BME280;62970;53.130;8.244;2023-10-09T23:53:53;101985.25;;;12.87;75.12
10167;BME280;62970;53.130;8.244;2023-10-09T23:56:27;101979.22;;;12.82;75.50
10167;BME280;62970;53.130;8.244;2023-10-09T23:59:21;101974.91;;;12.78;75.49
